createdAt,value
2023-07-26T00:01:12.474Z,12.63
2023-07-26T00:03:39.300Z,12.63
2023-07-26T00:06:06.000Z,12.56
2023-07-26T00:08:32.660Z,12.50
2023-07-26T00:10:59.913Z,12.56
2023-07-26T00:13:26.565Z,12.56
2023-07-26T00:15:53.148Z,12.69
2023-07-26T00:18:19.807Z,12.56
2023-07-26T00:20:46.492Z,12.44
2023-07-26T00:23:13.141Z,12.25
2023-07-26T00:25:39.774Z,12.19
2023-07-26T00:28:06.362Z,12.06
2023-07-26T00:30:33.056Z,12.00
2023-07-26T00:32:59.807Z,11.94
2023-07-26T00:35:29.560Z,11.81
2023-07-26T00:37:56.288Z,11.75
2023-07-26T00:40:22.948Z,11.69
2023-07-26T00:42:49.655Z,11.56
2023-07-26T00:45:16.356Z,11.50
2023-07-26T00:47:43.212Z,11.50
2023-07-26T00:50:10.010Z,11.38
2023-07-26T00:52:36.884Z,11.44
2023-07-26T00:55:04.598Z,11.50
2023-07-26T00:57:32.157Z,11.56
2023-07-26T00:59:59.344Z,11.50
2023-07-26T01:02:26.107Z,11.44
2023-07-26T01:04:53.434Z,11.19
2023-07-26T01:07:39.696Z,11.13
2023-07-26T01:10:36.127Z,11.19
2023-07-26T01:13:14.480Z,11.13
2023-07-26T01:15:42.873Z,11.00
2023-07-26T01:18:16.917Z,11.06
2023-07-26T01:20:44.766Z,11.00
2023-07-26T01:23:11.637Z,11.06
2023-07-26T01:25:38.245Z,11.25
2023-07-26T01:28:04.930Z,11.06
2023-07-26T01:30:34.567Z,11.06
2023-07-26T01:33:08.209Z,11.06
2023-07-26T01:35:36.640Z,10.94
2023-07-26T01:38:04.652Z,10.88
2023-07-26T01:40:31.949Z,11.06
2023-07-26T01:42:58.790Z,11.38
2023-07-26T01:45:25.399Z,11.13
2023-07-26T01:47:54.025Z,11.19
2023-07-26T01:50:20.732Z,11.19
2023-07-26T01:52:47.358Z,11.06
2023-07-26T01:55:13.961Z,11.00
2023-07-26T01:57:40.578Z,10.94
2023-07-26T02:00:08.871Z,10.94
2023-07-26T02:02:35.481Z,11.00
2023-07-26T02:05:02.216Z,11.13
2023-07-26T02:07:28.842Z,11.00
2023-07-26T02:09:55.405Z,10.88
2023-07-26T02:12:22.039Z,10.75
2023-07-26T02:14:48.690Z,10.69
2023-07-26T02:17:15.554Z,10.63
2023-07-26T02:19:42.143Z,10.56
2023-07-26T02:22:08.719Z,10.69
2023-07-26T02:24:35.525Z,10.63
2023-07-26T02:27:02.229Z,10.69
2023-07-26T02:29:28.974Z,10.56
2023-07-26T02:31:55.766Z,10.56
2023-07-26T02:34:22.413Z,10.44
2023-07-26T02:36:49.012Z,10.31
2023-07-26T02:39:15.603Z,10.38
2023-07-26T02:41:42.202Z,10.19
2023-07-26T02:44:08.808Z,10.19
2023-07-26T02:46:35.460Z,10.25
2023-07-26T02:49:02.116Z,10.31
2023-07-26T02:51:29.195Z,10.44
2023-07-26T02:53:55.835Z,10.25
2023-07-26T02:56:22.448Z,10.19
2023-07-26T02:58:49.010Z,10.19
2023-07-26T03:01:15.591Z,10.13
2023-07-26T03:03:44.034Z,10.19
2023-07-26T03:06:10.790Z,10.06
2023-07-26T03:08:37.391Z,10.13
2023-07-26T03:11:04.028Z,10.25
2023-07-26T03:13:30.664Z,10.06
2023-07-26T03:15:58.106Z,10.13
2023-07-26T03:18:24.750Z,10.13
2023-07-26T03:20:51.496Z,10.13
2023-07-26T03:23:18.200Z,10.25
2023-07-26T03:25:44.794Z,10.06
2023-07-26T03:28:11.405Z,10.25
2023-07-26T03:30:38.038Z,10.19
2023-07-26T03:33:04.620Z,10.19
2023-07-26T03:35:31.305Z,10.13
2023-07-26T03:37:57.889Z,10.13
2023-07-26T03:40:24.531Z,10.06
2023-07-26T03:42:51.073Z,10.00
2023-07-26T03:45:17.980Z,10.00
2023-07-26T03:47:44.792Z,10.00
2023-07-26T03:50:11.541Z,9.94
2023-07-26T03:52:38.177Z,9.81
2023-07-26T03:55:05.090Z,9.81
2023-07-26T03:57:32.280Z,9.75
2023-07-26T03:59:58.953Z,9.69
2023-07-26T04:02:25.774Z,9.69
2023-07-26T04:04:52.595Z,9.63
2023-07-26T04:07:19.219Z,9.63
2023-07-26T04:09:45.843Z,9.75
2023-07-26T04:12:12.432Z,9.81
2023-07-26T04:14:39.070Z,9.69
2023-07-26T04:17:05.666Z,9.75
2023-07-26T04:19:32.319Z,9.69
2023-07-26T04:21:59.007Z,9.75
2023-07-26T04:24:26.164Z,9.81
2023-07-26T04:26:53.839Z,9.94
2023-07-26T04:29:20.808Z,9.94
2023-07-26T04:31:47.396Z,10.00
2023-07-26T04:34:15.745Z,10.06
2023-07-26T04:36:42.464Z,10.19
2023-07-26T04:39:09.150Z,10.31
2023-07-26T04:41:35.734Z,10.44
2023-07-26T04:44:02.599Z,10.50
2023-07-26T04:46:29.373Z,10.50
2023-07-26T04:48:56.029Z,10.44
2023-07-26T04:51:24.596Z,10.44
2023-07-26T04:53:51.332Z,10.56
2023-07-26T04:56:18.026Z,10.69
2023-07-26T04:58:44.737Z,10.69
2023-07-26T05:01:11.612Z,10.81
2023-07-26T05:03:39.458Z,10.81
2023-07-26T05:06:06.213Z,10.88
2023-07-26T05:08:32.862Z,10.88
2023-07-26T05:10:59.485Z,11.00
2023-07-26T05:13:26.049Z,11.00
2023-07-26T05:15:52.625Z,11.13
2023-07-26T05:18:19.280Z,11.25
2023-07-26T05:20:45.964Z,11.25
2023-07-26T05:23:12.593Z,11.44
2023-07-26T05:25:40.838Z,11.56
2023-07-26T05:28:07.445Z,11.81
2023-07-26T05:30:41.182Z,11.94
2023-07-26T05:33:08.875Z,12.06
2023-07-26T05:35:36.253Z,12.06
2023-07-26T05:38:03.112Z,12.31
2023-07-26T05:40:29.696Z,12.31
2023-07-26T05:42:58.397Z,12.38
2023-07-26T05:45:26.855Z,12.50
2023-07-26T05:47:53.538Z,12.75
2023-07-26T05:50:21.031Z,12.81
2023-07-26T05:52:48.751Z,12.94
2023-07-26T05:55:16.616Z,13.00
2023-07-26T05:57:43.299Z,13.00
2023-07-26T06:00:11.622Z,13.06
2023-07-26T06:02:38.304Z,13.13
2023-07-26T06:05:06.432Z,13.13
2023-07-26T06:07:33.090Z,13.19
2023-07-26T06:09:59.704Z,13.19
2023-07-26T06:12:26.355Z,13.25
2023-07-26T06:14:52.953Z,13.25
2023-07-26T06:17:19.567Z,13.31
2023-07-26T06:19:46.206Z,13.31
2023-07-26T06:22:13.545Z,13.25
2023-07-26T06:24:40.297Z,13.31
2023-07-26T06:27:07.509Z,13.38
2023-07-26T06:29:36.278Z,13.38
2023-07-26T06:32:02.994Z,13.31
2023-07-26T06:34:29.798Z,13.31
2023-07-26T06:36:56.523Z,13.38
2023-07-26T06:39:26.499Z,13.38
2023-07-26T06:41:53.076Z,13.31
2023-07-26T06:44:19.687Z,13.25
2023-07-26T06:46:46.332Z,13.25
2023-07-26T06:49:13.005Z,13.31
2023-07-26T06:51:39.603Z,13.31
2023-07-26T06:54:06.503Z,13.06
2023-07-26T06:56:33.723Z,12.81
2023-07-26T06:59:02.224Z,12.81
2023-07-26T07:01:29.013Z,12.69
2023-07-26T07:04:11.399Z,12.56
2023-07-26T07:06:40.597Z,12.56
2023-07-26T07:09:07.472Z,12.44
2023-07-26T07:11:34.320Z,12.50
2023-07-26T07:14:01.183Z,12.50
2023-07-26T07:16:27.829Z,12.50
2023-07-26T07:18:54.800Z,12.56
2023-07-26T07:21:25.239Z,12.69
2023-07-26T07:23:52.577Z,12.88
2023-07-26T07:26:19.278Z,12.81
2023-07-26T07:28:45.965Z,12.81
2023-07-26T07:31:12.706Z,12.81
2023-07-26T07:33:40.050Z,12.81
2023-07-26T07:36:07.937Z,12.69
2023-07-26T07:38:34.896Z,12.75
2023-07-26T07:41:01.487Z,12.94
2023-07-26T07:43:28.348Z,13.31
2023-07-26T07:45:55.049Z,13.25
2023-07-26T07:48:21.942Z,13.31
2023-07-26T07:50:55.526Z,13.56
2023-07-26T07:53:23.442Z,14.06
2023-07-26T07:55:50.147Z,14.31
2023-07-26T07:58:18.012Z,14.50
2023-07-26T08:00:44.768Z,14.44
2023-07-26T08:03:11.355Z,14.50
2023-07-26T08:05:38.233Z,14.69
2023-07-26T08:08:07.271Z,14.81
2023-07-26T08:10:33.904Z,14.88
2023-07-26T08:13:00.502Z,15.13
2023-07-26T08:15:30.230Z,15.38
2023-07-26T08:17:56.879Z,15.44
2023-07-26T08:20:23.494Z,15.25
2023-07-26T08:22:50.057Z,15.31
2023-07-26T08:25:17.083Z,15.50
2023-07-26T08:27:44.032Z,15.56
2023-07-26T08:30:11.046Z,15.69
2023-07-26T08:32:37.728Z,15.81
2023-07-26T08:35:04.656Z,16.19
2023-07-26T08:37:31.254Z,16.31
2023-07-26T08:39:57.884Z,16.56
2023-07-26T08:42:24.471Z,16.19
2023-07-26T08:44:52.184Z,16.13
2023-07-26T08:47:21.061Z,16.06
2023-07-26T08:49:49.449Z,16.31
2023-07-26T08:52:17.915Z,16.69
2023-07-26T08:54:45.461Z,16.63
2023-07-26T08:57:12.689Z,16.75
2023-07-26T08:59:39.472Z,16.88
2023-07-26T09:02:09.092Z,16.81
2023-07-26T09:04:36.331Z,17.25
2023-07-26T09:07:06.914Z,17.06
2023-07-26T09:09:34.876Z,17.19
2023-07-26T09:12:02.658Z,17.13
2023-07-26T09:14:32.490Z,17.31
2023-07-26T09:17:01.320Z,17.69
2023-07-26T09:19:39.211Z,17.56
2023-07-26T09:22:09.468Z,17.50
2023-07-26T09:24:38.795Z,17.31
2023-07-26T09:27:07.712Z,17.63
2023-07-26T09:29:35.379Z,17.56
2023-07-26T09:32:02.181Z,17.06
2023-07-26T09:34:31.100Z,16.38
2023-07-26T09:36:58.671Z,15.88
2023-07-26T09:39:27.256Z,15.69
2023-07-26T09:42:07.513Z,15.69
2023-07-26T09:44:34.972Z,15.38
2023-07-26T09:47:02.472Z,15.31
2023-07-26T09:49:30.645Z,15.19
2023-07-26T09:54:35.649Z,15.25
2023-07-26T09:57:08.062Z,15.44
2023-07-26T09:59:39.088Z,15.44
2023-07-26T10:02:10.761Z,16.19
2023-07-26T10:04:50.690Z,16.88
2023-07-26T10:07:18.059Z,16.88
2023-07-26T10:09:46.891Z,17.19
2023-07-26T10:12:15.438Z,17.81
2023-07-26T10:14:42.880Z,17.31
2023-07-26T10:17:11.603Z,17.81
2023-07-26T10:19:39.631Z,17.56
2023-07-26T10:22:08.243Z,17.44
2023-07-26T10:24:37.730Z,17.25
2023-07-26T10:27:05.559Z,16.88
2023-07-26T10:29:32.403Z,16.69
2023-07-26T10:32:06.220Z,16.63
2023-07-26T10:34:33.342Z,17.31
2023-07-26T10:37:00.942Z,18.19
2023-07-26T10:39:35.242Z,18.19
2023-07-26T10:42:03.632Z,17.56
2023-07-26T10:44:30.538Z,17.06
2023-07-26T10:47:06.923Z,17.13
2023-07-26T10:49:35.007Z,17.00
2023-07-26T10:52:06.630Z,17.44
2023-07-26T10:54:35.737Z,18.25
2023-07-26T10:57:32.846Z,18.25
2023-07-26T11:00:05.596Z,18.13
2023-07-26T11:02:38.580Z,18.63
2023-07-26T11:05:13.650Z,18.50
2023-07-26T11:07:59.531Z,18.94
2023-07-26T11:10:32.643Z,18.63
2023-07-26T11:13:14.334Z,18.38
2023-07-26T11:16:13.022Z,18.75
2023-07-26T11:18:29.442Z,18.69
2023-07-26T11:20:56.872Z,18.56
2023-07-26T11:23:28.806Z,18.75
2023-07-26T11:26:01.117Z,18.50
2023-07-26T11:28:32.560Z,18.31
2023-07-26T11:31:00.144Z,18.38
2023-07-26T11:33:28.109Z,18.81
2023-07-26T11:35:54.770Z,19.13
2023-07-26T11:38:21.460Z,18.81
2023-07-26T11:40:51.219Z,19.06
2023-07-26T11:43:18.277Z,18.88
2023-07-26T11:45:45.271Z,19.13
2023-07-26T11:48:12.863Z,19.38
2023-07-26T11:50:39.690Z,19.44
2023-07-26T11:53:11.752Z,19.50
2023-07-26T11:55:44.492Z,19.00
2023-07-26T11:58:13.072Z,18.69
2023-07-26T12:00:46.013Z,18.63
2023-07-26T12:03:15.249Z,18.38
2023-07-26T12:05:46.207Z,18.44
2023-07-26T12:08:13.654Z,18.25
2023-07-26T12:10:42.839Z,18.38
2023-07-26T12:13:20.442Z,18.63
2023-07-26T12:15:59.065Z,18.63
2023-07-26T12:18:26.683Z,18.50
2023-07-26T12:21:10.085Z,18.81
2023-07-26T12:23:56.634Z,18.50
2023-07-26T12:26:31.169Z,18.56
2023-07-26T12:28:59.804Z,18.44
2023-07-26T12:31:28.686Z,18.75
2023-07-26T12:33:57.369Z,19.31
2023-07-26T12:36:30.957Z,19.38
2023-07-26T12:38:58.817Z,18.94
2023-07-26T12:41:25.612Z,18.88
2023-07-26T12:43:54.023Z,19.44
2023-07-26T12:46:21.418Z,19.63
2023-07-26T12:48:48.174Z,19.25
2023-07-26T12:51:15.248Z,19.06
2023-07-26T12:53:42.008Z,19.31
2023-07-26T12:56:08.682Z,19.50
2023-07-26T12:58:35.268Z,19.56
2023-07-26T13:01:01.866Z,19.31
2023-07-26T13:03:28.740Z,19.06
2023-07-26T13:05:55.395Z,19.06
2023-07-26T13:08:22.535Z,19.50
2023-07-26T13:10:49.229Z,19.50
2023-07-26T13:13:15.825Z,19.75
2023-07-26T13:15:42.560Z,19.81
2023-07-26T13:18:09.243Z,19.88
2023-07-26T13:20:35.930Z,19.81
2023-07-26T13:23:02.664Z,19.63
2023-07-26T13:25:29.255Z,19.94
2023-07-26T13:27:56.267Z,19.63
2023-07-26T13:30:22.898Z,20.06
2023-07-26T13:32:49.626Z,20.31
2023-07-26T13:35:17.021Z,19.94
2023-07-26T13:37:43.633Z,20.25
2023-07-26T13:40:10.458Z,20.25
2023-07-26T13:42:37.105Z,20.25
2023-07-26T13:45:03.943Z,20.06
2023-07-26T13:47:33.403Z,19.94
2023-07-26T13:50:00.190Z,20.13
2023-07-26T13:52:26.775Z,20.31
2023-07-26T13:54:53.692Z,20.06
2023-07-26T13:57:20.537Z,20.31
2023-07-26T13:59:47.136Z,20.13
2023-07-26T14:02:13.774Z,20.13
2023-07-26T14:04:40.486Z,20.06
2023-07-26T14:07:07.272Z,19.94
2023-07-26T14:09:33.835Z,20.00
2023-07-26T14:12:01.087Z,20.19
2023-07-26T14:14:28.183Z,20.63
2023-07-26T14:16:55.142Z,19.94
2023-07-26T14:19:21.808Z,19.88
2023-07-26T14:21:48.497Z,20.25
2023-07-26T14:24:15.124Z,20.38
2023-07-26T14:26:41.807Z,20.31
2023-07-26T14:29:08.440Z,20.56
2023-07-26T14:31:35.152Z,20.31
2023-07-26T14:34:01.865Z,19.81
2023-07-26T14:36:28.789Z,20.19
2023-07-26T14:38:55.446Z,20.56
2023-07-26T14:41:22.112Z,20.44
2023-07-26T14:43:49.672Z,20.50
2023-07-26T14:46:16.423Z,20.31
2023-07-26T14:48:43.597Z,20.44
2023-07-26T14:51:10.409Z,20.50
2023-07-26T14:53:37.006Z,20.50
2023-07-26T14:56:03.822Z,20.50
2023-07-26T14:58:30.444Z,20.63
2023-07-26T15:00:57.215Z,20.44
2023-07-26T15:03:24.050Z,20.38
2023-07-26T15:05:51.315Z,20.19
2023-07-26T15:08:18.018Z,20.31
2023-07-26T15:10:44.817Z,20.44
2023-07-26T15:13:11.479Z,20.06
2023-07-26T15:15:41.792Z,19.94
2023-07-26T15:18:08.622Z,19.81
2023-07-26T15:20:35.261Z,20.13
2023-07-26T15:23:01.923Z,20.50
2023-07-26T15:25:28.570Z,20.56
2023-07-26T15:27:55.176Z,20.13
2023-07-26T15:30:21.883Z,20.00
2023-07-26T15:32:48.519Z,20.00
2023-07-26T15:35:15.432Z,19.94
2023-07-26T15:37:47.492Z,19.69
2023-07-26T15:40:25.327Z,19.69
2023-07-26T15:43:00.481Z,20.06
2023-07-26T15:48:14.148Z,19.94
2023-07-26T15:50:54.236Z,19.63
2023-07-26T15:53:22.225Z,20.00
2023-07-26T15:55:51.033Z,20.06
2023-07-26T15:58:23.306Z,20.00
2023-07-26T16:00:52.571Z,20.13
2023-07-26T16:03:33.782Z,20.19
2023-07-26T16:11:00.418Z,20.13
2023-07-26T16:13:27.028Z,20.06
2023-07-26T16:18:28.032Z,20.19
2023-07-26T16:23:25.207Z,20.06
2023-07-26T16:25:52.072Z,20.13
2023-07-26T16:28:18.743Z,20.06
2023-07-26T16:30:45.381Z,20.06
2023-07-26T16:33:12.020Z,19.94
2023-07-26T16:35:38.763Z,19.94
2023-07-26T16:38:05.451Z,20.00
2023-07-26T16:40:32.109Z,19.88
2023-07-26T16:42:59.009Z,20.00
2023-07-26T16:45:26.324Z,19.88
2023-07-26T16:47:52.984Z,19.81
2023-07-26T16:50:19.667Z,20.06
2023-07-26T16:52:46.448Z,20.00
2023-07-26T16:55:12.997Z,20.06
2023-07-26T16:57:39.558Z,20.00
2023-07-26T17:00:06.987Z,20.06
2023-07-26T17:02:33.816Z,19.88
2023-07-26T17:05:00.449Z,19.69
2023-07-26T17:07:27.084Z,19.81
2023-07-26T17:09:53.730Z,19.88
2023-07-26T17:12:20.340Z,20.00
2023-07-26T17:14:46.965Z,19.94
2023-07-26T17:17:13.574Z,20.06
2023-07-26T17:19:40.211Z,19.88
2023-07-26T17:22:06.869Z,19.88
2023-07-26T17:24:33.486Z,19.69
2023-07-26T17:27:00.054Z,19.63
2023-07-26T17:29:26.612Z,19.56
2023-07-26T17:31:53.334Z,19.63
2023-07-26T17:34:20.027Z,19.56
2023-07-26T17:36:46.686Z,19.69
2023-07-26T17:39:13.608Z,19.56
2023-07-26T17:41:40.286Z,19.63
2023-07-26T17:44:07.787Z,19.75
2023-07-26T17:46:34.660Z,19.63
2023-07-26T17:49:01.431Z,19.69
2023-07-26T17:51:28.143Z,19.75
2023-07-26T17:53:54.744Z,19.56
2023-07-26T17:56:21.306Z,19.56
2023-07-26T17:58:47.931Z,19.50
2023-07-26T18:01:14.623Z,19.38
2023-07-26T18:03:41.380Z,19.31
2023-07-26T18:06:08.704Z,19.19
2023-07-26T18:08:38.124Z,19.19
2023-07-26T18:11:05.663Z,19.00
2023-07-26T18:13:32.686Z,18.94
2023-07-26T18:16:11.016Z,19.06
2023-07-26T18:18:38.289Z,18.88
2023-07-26T18:21:07.216Z,18.31
2023-07-26T18:23:34.573Z,18.44
2023-07-26T18:26:01.865Z,18.44
2023-07-26T18:28:28.501Z,18.44
2023-07-26T18:31:08.976Z,18.00
2023-07-26T18:33:37.281Z,18.00
2023-07-26T18:36:04.023Z,17.75
2023-07-26T18:38:30.764Z,17.81
2023-07-26T18:40:59.120Z,17.56
2023-07-26T18:43:25.774Z,17.25
2023-07-26T18:45:52.559Z,16.94
2023-07-26T18:48:22.828Z,16.56
2023-07-26T18:50:51.088Z,16.38
2023-07-26T18:53:18.040Z,16.13
2023-07-26T18:55:47.089Z,15.94
2023-07-26T18:58:14.073Z,15.94
2023-07-26T19:00:40.754Z,15.94
2023-07-26T19:03:07.514Z,15.81
2023-07-26T19:05:37.894Z,15.69
2023-07-26T19:08:04.979Z,15.50
2023-07-26T19:10:31.552Z,15.44
2023-07-26T19:12:58.142Z,15.44
2023-07-26T19:15:24.750Z,15.31
2023-07-26T19:17:51.398Z,15.31
2023-07-26T19:20:17.984Z,15.13
2023-07-26T19:22:44.593Z,15.06
2023-07-26T19:25:11.202Z,15.00
2023-07-26T19:27:37.804Z,15.25
2023-07-26T19:30:04.837Z,15.25
2023-07-26T19:32:31.412Z,15.25
2023-07-26T19:34:58.005Z,15.19
2023-07-26T19:37:24.644Z,15.13
2023-07-26T19:39:51.250Z,15.06
2023-07-26T19:42:17.978Z,15.00
2023-07-26T19:44:44.594Z,14.88
2023-07-26T19:47:11.219Z,14.81
2023-07-26T19:49:37.752Z,14.75
2023-07-26T19:52:08.115Z,14.75
2023-07-26T19:54:36.005Z,14.75
2023-07-26T19:57:02.733Z,14.69
2023-07-26T19:59:29.390Z,14.56
2023-07-26T20:01:56.015Z,14.56
2023-07-26T20:04:24.051Z,14.50
2023-07-26T20:06:52.814Z,14.56
2023-07-26T20:09:20.148Z,14.56
2023-07-26T20:11:47.071Z,14.56
2023-07-26T20:14:14.528Z,14.44
2023-07-26T20:16:44.003Z,14.44
2023-07-26T20:19:11.599Z,14.38
2023-07-26T20:21:38.628Z,14.44
2023-07-26T20:24:05.771Z,14.38
2023-07-26T20:26:33.332Z,14.31
2023-07-26T20:29:00.817Z,14.25
2023-07-26T20:31:28.355Z,14.25
2023-07-26T20:33:55.820Z,14.19
2023-07-26T20:36:22.403Z,14.19
2023-07-26T20:38:48.942Z,14.13
2023-07-26T20:41:15.680Z,14.13
2023-07-26T20:43:42.298Z,14.06
2023-07-26T20:46:09.009Z,14.06
2023-07-26T20:48:35.993Z,13.94
2023-07-26T20:51:05.396Z,13.75
2023-07-26T20:53:31.968Z,13.75
2023-07-26T20:56:00.967Z,13.75
2023-07-26T20:58:27.575Z,13.81
2023-07-26T21:00:54.278Z,13.69
2023-07-26T21:03:21.171Z,13.50
2023-07-26T21:05:48.616Z,13.50
2023-07-26T21:08:16.106Z,13.56
2023-07-26T21:10:43.401Z,13.56
2023-07-26T21:13:10.032Z,13.56
2023-07-26T21:15:38.316Z,13.56
2023-07-26T21:18:05.021Z,13.69
2023-07-26T21:20:31.720Z,13.56
2023-07-26T21:22:58.362Z,13.56
2023-07-26T21:25:25.017Z,13.56
2023-07-26T21:27:52.731Z,13.75
2023-07-26T21:30:20.497Z,13.88
2023-07-26T21:32:47.155Z,13.88
2023-07-26T21:35:13.853Z,13.81
2023-07-26T21:37:40.496Z,13.94
2023-07-26T21:40:07.739Z,13.88
2023-07-26T21:42:34.302Z,13.88
2023-07-26T21:45:00.844Z,14.00
2023-07-26T21:47:27.513Z,14.06
2023-07-26T21:49:54.120Z,13.94
2023-07-26T21:52:20.829Z,13.81
2023-07-26T21:54:47.453Z,13.81
2023-07-26T21:57:14.125Z,13.88
2023-07-26T21:59:40.735Z,13.94
2023-07-26T22:02:07.403Z,13.75
2023-07-26T22:04:34.171Z,13.94
2023-07-26T22:07:00.797Z,13.88
2023-07-26T22:09:27.600Z,13.81
2023-07-26T22:11:54.187Z,13.94
2023-07-26T22:14:21.310Z,13.94
2023-07-26T22:16:48.015Z,13.94
2023-07-26T22:19:14.676Z,14.06
2023-07-26T22:21:41.253Z,13.88
2023-07-26T22:24:07.989Z,13.81
2023-07-26T22:26:34.967Z,13.88
2023-07-26T22:29:01.788Z,14.13
2023-07-26T22:31:28.774Z,14.00
2023-07-26T22:33:55.459Z,13.88
2023-07-26T22:36:22.051Z,13.75
2023-07-26T22:38:48.654Z,13.69
2023-07-26T22:41:15.358Z,13.81
2023-07-26T22:43:46.008Z,13.88
2023-07-26T22:46:13.150Z,13.75
2023-07-26T22:48:42.460Z,13.69
2023-07-26T22:51:09.493Z,13.75
2023-07-26T22:53:36.100Z,13.63
2023-07-26T22:56:02.836Z,13.63
2023-07-26T22:58:29.472Z,13.69
2023-07-26T23:01:00.543Z,13.81
2023-07-26T23:03:27.347Z,13.81
2023-07-26T23:06:01.520Z,13.75
2023-07-26T23:08:28.693Z,13.88
2023-07-26T23:10:59.601Z,13.94
2023-07-26T23:13:27.284Z,13.75
2023-07-26T23:15:54.016Z,13.69
2023-07-26T23:18:20.678Z,13.69
2023-07-26T23:20:51.709Z,13.69
2023-07-26T23:23:20.309Z,13.75
2023-07-26T23:25:47.117Z,13.69
2023-07-26T23:28:13.816Z,13.63
2023-07-26T23:30:51.579Z,13.50
2023-07-26T23:33:19.244Z,13.56
2023-07-26T23:35:50.164Z,13.63
2023-07-26T23:38:16.943Z,13.75
2023-07-26T23:40:45.096Z,13.75
2023-07-26T23:43:12.772Z,13.69
2023-07-26T23:45:39.497Z,13.69
2023-07-26T23:48:06.452Z,13.88
2023-07-26T23:50:33.004Z,13.75
2023-07-26T23:52:59.573Z,13.75
2023-07-26T23:55:26.397Z,13.75
2023-07-26T23:57:53.007Z,13.88
